createdAt,value
2022-11-12T00:00:35.518Z,57.71
2022-11-12T00:03:21.716Z,58.01
2022-11-12T00:06:11.298Z,57.52
2022-11-12T00:08:56.430Z,57.63
2022-11-12T00:11:41.836Z,57.89
2022-11-12T00:14:28.494Z,57.62
2022-11-12T00:17:13.721Z,57.52
2022-11-12T00:19:58.777Z,57.47
2022-11-12T00:22:44.008Z,57.61
2022-11-12T00:25:29.620Z,57.58
2022-11-12T00:28:14.405Z,57.83
2022-11-12T00:30:59.340Z,57.60
2022-11-12T00:33:44.744Z,57.60
2022-11-12T00:36:30.509Z,57.44
2022-11-12T00:39:16.467Z,57.50
2022-11-12T00:42:01.455Z,57.72
2022-11-12T00:44:51.167Z,57.69
2022-11-12T00:47:36.245Z,57.71
2022-11-12T00:50:21.477Z,57.71
2022-11-12T00:53:06.736Z,57.51
2022-11-12T00:56:11.335Z,57.39
2022-11-12T00:58:57.803Z,57.44
2022-11-12T01:01:43.130Z,57.33
2022-11-12T01:04:29.457Z,57.29
2022-11-12T01:07:15.992Z,57.11
2022-11-12T01:10:01.203Z,57.25
2022-11-12T01:12:47.781Z,57.32
2022-11-12T01:15:32.731Z,57.17
2022-11-12T01:18:18.080Z,57.21
2022-11-12T01:21:04.646Z,56.97
2022-11-12T01:23:50.063Z,57.03
2022-11-12T01:26:35.421Z,57.27
2022-11-12T01:29:20.572Z,57.51
2022-11-12T01:32:05.816Z,57.26
2022-11-12T01:34:54.873Z,57.35
2022-11-12T01:37:40.217Z,57.14
2022-11-12T01:40:25.655Z,57.41
2022-11-12T01:43:14.067Z,57.31
2022-11-12T01:46:02.380Z,57.44
2022-11-12T01:48:55.672Z,57.41
2022-11-12T01:51:44.129Z,57.26
2022-11-12T01:54:32.521Z,57.30
2022-11-12T01:57:29.498Z,57.22
2022-11-12T02:00:17.764Z,56.97
2022-11-12T02:03:08.461Z,57.06
2022-11-12T02:06:04.773Z,57.29
2022-11-12T02:08:50.239Z,57.29
2022-11-12T02:11:35.520Z,57.16
2022-11-12T02:14:25.337Z,57.09
2022-11-12T02:17:10.349Z,57.27
2022-11-12T02:19:59.641Z,57.27
2022-11-12T02:22:44.969Z,57.09
2022-11-12T02:25:35.541Z,57.09
2022-11-12T02:28:21.393Z,56.99
2022-11-12T02:31:06.343Z,57.25
2022-11-12T02:33:51.899Z,57.08
2022-11-12T02:36:38.722Z,57.14
2022-11-12T02:39:24.014Z,57.15
2022-11-12T02:42:09.405Z,57.10
2022-11-12T02:44:54.331Z,57.03
2022-11-12T02:47:39.828Z,57.15
2022-11-12T02:50:25.122Z,57.21
2022-11-12T02:53:10.173Z,57.20
2022-11-12T02:55:56.357Z,57.31
2022-11-12T02:58:41.209Z,57.23
2022-11-12T03:01:26.763Z,57.50
2022-11-12T03:04:11.803Z,57.24
2022-11-12T03:06:56.847Z,57.27
2022-11-12T03:09:42.233Z,57.34
2022-11-12T03:12:27.064Z,56.97
2022-11-12T03:15:17.875Z,57.09
2022-11-12T03:18:03.254Z,57.09
2022-11-12T03:20:51.795Z,57.14
2022-11-12T03:23:36.958Z,57.34
2022-11-12T03:26:23.541Z,57.43
2022-11-12T03:29:08.531Z,57.17
2022-11-12T03:31:53.814Z,57.21
2022-11-12T03:34:39.527Z,57.17
2022-11-12T03:37:24.752Z,57.21
2022-11-12T03:40:10.061Z,57.49
2022-11-12T03:42:55.629Z,57.07
2022-11-12T03:45:41.284Z,57.08
2022-11-12T03:48:26.499Z,57.22
2022-11-12T03:51:16.208Z,57.28
2022-11-12T03:54:01.246Z,57.12
2022-11-12T03:56:47.386Z,57.03
2022-11-12T03:59:32.801Z,57.08
2022-11-12T04:02:17.843Z,57.20
2022-11-12T04:05:26.986Z,56.97
2022-11-12T04:08:34.986Z,57.09
2022-11-12T04:11:21.052Z,57.09
2022-11-12T04:14:06.116Z,57.44
2022-11-12T04:17:10.865Z,57.14
2022-11-12T04:20:14.593Z,57.15
2022-11-12T04:22:59.867Z,57.12
2022-11-12T04:26:04.513Z,57.25
2022-11-12T04:29:08.470Z,57.25
2022-11-12T04:31:53.286Z,57.24
2022-11-12T04:34:42.989Z,57.20
2022-11-12T04:37:44.223Z,57.25
2022-11-12T04:40:48.215Z,57.31
2022-11-12T04:43:52.226Z,56.78
2022-11-12T04:46:37.514Z,57.33
2022-11-12T04:49:22.441Z,57.35
2022-11-12T04:52:07.488Z,57.14
2022-11-12T04:54:54.984Z,57.28
2022-11-12T04:57:40.200Z,57.20
2022-11-12T05:00:25.164Z,57.36
2022-11-12T05:03:10.928Z,57.13
2022-11-12T05:06:03.271Z,57.25
2022-11-12T05:08:48.469Z,57.31
2022-11-12T05:11:33.654Z,57.07
2022-11-12T05:14:24.356Z,57.29
2022-11-12T05:17:09.510Z,57.15
2022-11-12T05:19:54.746Z,57.20
2022-11-12T05:22:50.448Z,57.35
2022-11-12T05:25:44.772Z,57.42
2022-11-12T05:28:29.762Z,57.32
2022-11-12T05:31:14.673Z,57.39
2022-11-12T05:34:00.116Z,57.45
2022-11-12T05:36:46.314Z,57.38
2022-11-12T05:39:31.524Z,57.46
2022-11-12T05:42:16.987Z,57.41
2022-11-12T05:45:03.546Z,57.53
2022-11-12T05:47:48.616Z,57.36
2022-11-12T05:50:45.193Z,57.61
2022-11-12T05:53:38.532Z,57.54
2022-11-12T05:56:24.415Z,57.25
2022-11-12T05:59:12.556Z,57.48
2022-11-12T06:01:58.136Z,57.59
2022-11-12T06:04:44.685Z,57.43
2022-11-12T06:07:29.736Z,57.67
2022-11-12T06:10:20.268Z,57.43
2022-11-12T06:13:06.390Z,57.54
2022-11-12T06:15:52.904Z,57.80
2022-11-12T06:18:38.462Z,57.45
2022-11-12T06:21:24.160Z,57.27
2022-11-12T06:24:09.571Z,57.24
2022-11-12T06:26:56.041Z,57.12
2022-11-12T06:29:40.875Z,57.31
2022-11-12T06:32:26.176Z,57.14
2022-11-12T06:35:13.633Z,57.30
2022-11-12T06:37:58.427Z,57.04
2022-11-12T06:40:43.460Z,57.15
2022-11-12T06:43:30.417Z,57.30
2022-11-12T06:46:17.227Z,57.10
2022-11-12T06:49:02.489Z,57.47
2022-11-12T06:51:50.410Z,57.21
2022-11-12T06:54:37.091Z,57.32
2022-11-12T06:57:22.267Z,57.28
2022-11-12T07:00:09.578Z,57.29
2022-11-12T07:02:54.672Z,57.32
2022-11-12T07:05:41.143Z,57.36
2022-11-12T07:08:26.586Z,57.51
2022-11-12T07:11:12.623Z,57.53
2022-11-12T07:13:57.649Z,57.42
2022-11-12T07:16:42.646Z,57.58
2022-11-12T07:19:27.779Z,57.52
2022-11-12T07:22:12.892Z,57.86
2022-11-12T07:25:00.153Z,57.62
2022-11-12T07:27:45.179Z,57.75
2022-11-12T07:30:30.213Z,57.63
2022-11-12T07:33:15.350Z,57.73
2022-11-12T07:36:08.790Z,57.84
2022-11-12T07:38:54.719Z,57.85
2022-11-12T07:41:39.979Z,57.93
2022-11-12T07:44:29.672Z,58.15
2022-11-12T07:47:15.034Z,58.30
2022-11-12T07:50:00.373Z,58.45
2022-11-12T07:52:45.435Z,58.57
2022-11-12T07:55:31.770Z,58.34
2022-11-12T07:58:16.812Z,58.33
2022-11-12T08:01:10.006Z,58.47
2022-11-12T08:03:55.187Z,58.38
2022-11-12T08:06:40.373Z,58.29
2022-11-12T08:09:25.451Z,58.13
2022-11-12T08:12:10.274Z,58.41
2022-11-12T08:14:56.177Z,58.41
2022-11-12T08:17:41.278Z,58.32
2022-11-12T08:20:27.074Z,58.34
2022-11-12T08:23:12.154Z,58.67
2022-11-12T08:25:59.436Z,58.84
2022-11-12T08:28:45.222Z,58.78
2022-11-12T08:31:30.182Z,58.95
2022-11-12T08:34:25.913Z,59.23
2022-11-12T08:37:11.033Z,59.33
2022-11-12T08:39:55.992Z,59.21
2022-11-12T08:42:40.937Z,59.46
2022-11-12T08:45:29.411Z,59.63
2022-11-12T08:48:15.706Z,59.61
2022-11-12T08:51:02.445Z,59.49
2022-11-12T08:53:47.688Z,59.87
2022-11-12T08:56:34.239Z,59.68
2022-11-12T08:59:19.369Z,59.45
2022-11-12T09:02:04.249Z,59.48
2022-11-12T09:04:51.121Z,59.27
2022-11-12T09:07:49.453Z,59.18
2022-11-12T09:10:36.446Z,59.29
2022-11-12T09:13:21.407Z,58.98
2022-11-12T09:16:09.597Z,58.88
2022-11-12T09:18:54.832Z,59.08
2022-11-12T09:21:39.816Z,58.69
2022-11-12T09:24:28.180Z,58.35
2022-11-12T09:27:13.587Z,58.51
2022-11-12T09:29:58.765Z,58.52
2022-11-12T09:32:43.786Z,58.41
2022-11-12T09:35:31.982Z,57.97
2022-11-12T09:38:19.340Z,58.23
2022-11-12T09:41:16.813Z,57.97
2022-11-12T09:44:25.414Z,57.69
2022-11-12T09:47:27.647Z,57.11
2022-11-12T09:50:25.764Z,57.32
2022-11-12T09:53:22.848Z,56.68
2022-11-12T09:56:12.630Z,56.56
2022-11-12T09:58:58.040Z,56.33
2022-11-12T10:02:11.227Z,56.55
2022-11-12T10:05:23.256Z,55.97
2022-11-12T10:08:29.020Z,56.08
2022-11-12T10:12:10.471Z,56.04
2022-11-12T10:15:37.754Z,56.05
2022-11-12T10:18:48.036Z,55.98
2022-11-12T10:21:46.578Z,55.76
2022-11-12T10:24:39.914Z,55.55
2022-11-12T10:27:34.543Z,55.72
2022-11-12T10:30:22.029Z,55.32
2022-11-12T10:33:14.054Z,55.24
2022-11-12T10:36:27.268Z,55.05
2022-11-12T10:39:51.099Z,55.30
2022-11-12T10:42:56.606Z,55.12
2022-11-12T10:45:43.548Z,55.01
2022-11-12T10:48:34.194Z,54.79
2022-11-12T10:51:26.812Z,54.70
2022-11-12T10:54:38.712Z,54.90
2022-11-12T10:57:25.909Z,54.71
2022-11-12T11:00:14.483Z,54.57
2022-11-12T11:03:03.576Z,54.61
2022-11-12T11:05:48.821Z,54.23
2022-11-12T11:08:44.537Z,54.39
2022-11-12T11:11:31.381Z,54.09
2022-11-12T11:14:19.858Z,53.74
2022-11-12T11:17:09.344Z,53.69
2022-11-12T11:19:55.250Z,53.84
2022-11-12T11:22:54.047Z,53.66
2022-11-12T11:25:43.142Z,53.47
2022-11-12T11:28:38.871Z,53.07
2022-11-12T11:31:37.660Z,53.06
2022-11-12T11:34:24.092Z,52.90
2022-11-12T11:37:24.281Z,52.54
2022-11-12T11:40:30.073Z,52.67
2022-11-12T11:43:26.738Z,52.34
2022-11-12T11:46:33.271Z,52.58
2022-11-12T11:49:18.132Z,52.60
2022-11-12T11:52:05.977Z,52.08
2022-11-12T11:55:22.021Z,51.95
2022-11-12T11:58:38.125Z,51.50
2022-11-12T12:01:34.993Z,51.65
2022-11-12T12:04:37.176Z,51.50
2022-11-12T12:07:45.003Z,51.50
2022-11-12T12:11:01.245Z,51.42
2022-11-12T12:13:53.296Z,51.44
2022-11-12T12:16:56.093Z,51.29
2022-11-12T12:20:13.853Z,51.05
2022-11-12T12:23:33.574Z,50.44
2022-11-12T12:26:24.257Z,50.58
2022-11-12T12:29:18.474Z,50.49
2022-11-12T12:32:12.540Z,50.37
2022-11-12T12:35:16.714Z,50.03
2022-11-12T12:38:15.894Z,49.86
2022-11-12T12:41:19.692Z,49.89
2022-11-12T12:44:08.688Z,49.55
2022-11-12T12:46:58.857Z,49.29
2022-11-12T12:49:46.434Z,48.93
2022-11-12T12:53:00.510Z,48.72
2022-11-12T12:55:51.134Z,48.48
2022-11-12T12:58:45.513Z,48.50
2022-11-12T13:01:34.665Z,48.27
2022-11-12T13:04:52.491Z,47.80
2022-11-12T13:07:44.527Z,47.94
2022-11-12T13:10:41.884Z,47.79
2022-11-12T13:13:32.079Z,47.93
2022-11-12T13:16:52.118Z,47.61
2022-11-12T13:19:39.112Z,47.68
2022-11-12T13:22:26.578Z,47.63
2022-11-12T13:25:14.265Z,47.26
2022-11-12T13:28:02.409Z,47.21
2022-11-12T13:30:47.301Z,47.22
2022-11-12T13:33:33.475Z,47.13
2022-11-12T13:36:29.285Z,47.16
2022-11-12T13:39:18.220Z,47.20
2022-11-12T13:42:31.721Z,47.37
2022-11-12T13:45:19.407Z,47.43
2022-11-12T13:48:13.780Z,47.12
2022-11-12T13:51:03.111Z,47.25
2022-11-12T13:53:48.570Z,47.65
2022-11-12T13:56:36.199Z,47.47
2022-11-12T13:59:24.664Z,47.43
2022-11-12T14:02:41.522Z,47.38
2022-11-12T14:05:33.744Z,47.49
2022-11-12T14:08:48.084Z,47.54
2022-11-12T14:11:52.320Z,47.85
2022-11-12T14:14:50.170Z,47.49
2022-11-12T14:17:38.214Z,47.97
2022-11-12T14:20:36.804Z,47.75
2022-11-12T14:23:25.197Z,48.02
2022-11-12T14:26:12.266Z,47.73
2022-11-12T14:28:57.411Z,48.09
2022-11-12T14:31:42.952Z,48.24
2022-11-12T14:34:33.028Z,48.18
2022-11-12T14:37:42.919Z,47.90
2022-11-12T14:40:31.807Z,48.43
2022-11-12T14:43:41.397Z,48.47
2022-11-12T14:46:43.926Z,48.31
2022-11-12T14:49:43.913Z,48.36
2022-11-12T14:52:35.833Z,48.66
2022-11-12T14:55:30.709Z,48.73
2022-11-12T14:58:17.399Z,48.82
2022-11-12T15:01:59.330Z,48.65
2022-11-12T15:04:38.205Z,48.81
2022-11-12T15:07:29.278Z,48.58
2022-11-12T15:10:33.583Z,48.81
2022-11-12T15:13:21.571Z,49.22
2022-11-12T15:16:09.535Z,49.17
2022-11-12T15:19:02.585Z,48.94
2022-11-12T15:21:51.517Z,49.23
2022-11-12T15:24:39.014Z,49.16
2022-11-12T15:27:37.636Z,49.21
2022-11-12T15:30:28.104Z,49.10
2022-11-12T15:33:13.641Z,49.38
2022-11-12T15:36:00.613Z,49.80
2022-11-12T15:38:51.287Z,49.73
2022-11-12T15:41:36.525Z,49.75
2022-11-12T15:44:25.385Z,49.89
2022-11-12T15:47:23.942Z,49.75
2022-11-12T15:50:19.823Z,49.83
2022-11-12T15:53:05.496Z,50.07
2022-11-12T15:55:54.970Z,50.03
2022-11-12T15:58:40.494Z,50.09
2022-11-12T16:01:25.674Z,50.06
2022-11-12T16:04:12.789Z,50.18
2022-11-12T16:06:58.063Z,50.56
2022-11-12T16:09:43.329Z,50.68
2022-11-12T16:12:29.429Z,50.82
2022-11-12T16:15:18.759Z,50.95
2022-11-12T16:18:03.755Z,51.00
2022-11-12T16:20:50.098Z,51.14
2022-11-12T16:23:36.809Z,51.28
2022-11-12T16:26:27.614Z,51.35
2022-11-12T16:29:14.053Z,51.44
2022-11-12T16:31:59.459Z,51.39
2022-11-12T16:34:49.154Z,51.57
2022-11-12T16:37:34.153Z,51.66
2022-11-12T16:40:22.136Z,51.67
2022-11-12T16:43:06.977Z,51.47
2022-11-12T16:45:56.281Z,51.94
2022-11-12T16:48:41.689Z,51.99
2022-11-12T16:51:27.021Z,51.93
2022-11-12T16:54:12.153Z,51.59
2022-11-12T16:56:57.261Z,51.68
2022-11-12T16:59:42.322Z,52.04
2022-11-12T17:02:27.499Z,51.75
2022-11-12T17:05:15.977Z,52.10
2022-11-12T17:08:01.227Z,51.84
2022-11-12T17:10:46.337Z,51.80
2022-11-12T17:13:31.296Z,51.73
2022-11-12T17:16:16.628Z,52.08
2022-11-12T17:19:02.129Z,52.24
2022-11-12T17:21:47.310Z,52.09
2022-11-12T17:24:32.772Z,51.81
2022-11-12T17:27:17.529Z,51.83
2022-11-12T17:30:03.391Z,51.73
2022-11-12T17:32:49.038Z,52.00
2022-11-12T17:35:34.897Z,52.25
2022-11-12T17:38:19.929Z,52.46
2022-11-12T17:41:06.108Z,52.75
2022-11-12T17:43:55.958Z,53.06
2022-11-12T17:46:41.769Z,53.39
2022-11-12T17:49:27.190Z,53.27
2022-11-12T17:52:12.371Z,53.74
2022-11-12T17:55:01.712Z,54.00
2022-11-12T17:57:48.701Z,54.11
2022-11-12T18:00:34.711Z,53.94
2022-11-12T18:03:19.624Z,54.11
2022-11-12T18:06:05.333Z,54.54
2022-11-12T18:09:16.584Z,54.35
2022-11-12T18:12:01.652Z,54.59
2022-11-12T18:14:47.813Z,54.50
2022-11-12T18:17:34.180Z,54.72
2022-11-12T18:20:19.787Z,54.42
2022-11-12T18:23:04.863Z,54.52
2022-11-12T18:25:50.016Z,54.85
2022-11-12T18:28:35.185Z,54.55
2022-11-12T18:31:21.473Z,54.90
2022-11-12T18:34:06.848Z,54.59
2022-11-12T18:36:52.742Z,54.90
2022-11-12T18:39:37.931Z,54.70
2022-11-12T18:42:22.832Z,54.96
2022-11-12T18:45:11.251Z,55.05
2022-11-12T18:47:56.623Z,55.05
2022-11-12T18:50:41.519Z,54.92
2022-11-12T18:53:28.603Z,55.38
2022-11-12T18:56:16.313Z,55.09
2022-11-12T18:59:01.153Z,55.43
2022-11-12T19:01:46.252Z,55.03
2022-11-12T19:04:32.048Z,55.13
2022-11-12T19:07:17.144Z,55.57
2022-11-12T19:10:14.722Z,55.52
2022-11-12T19:13:04.919Z,55.65
2022-11-12T19:15:52.397Z,55.25
2022-11-12T19:18:39.653Z,55.34
2022-11-12T19:21:26.132Z,55.40
2022-11-12T19:24:10.964Z,55.41
2022-11-12T19:27:03.699Z,55.37
2022-11-12T19:29:49.490Z,55.47
2022-11-12T19:32:34.427Z,55.44
2022-11-12T19:35:20.896Z,55.31
2022-11-12T19:38:05.781Z,55.59
2022-11-12T19:40:50.984Z,55.62
2022-11-12T19:43:36.205Z,55.80
2022-11-12T19:46:21.559Z,56.12
2022-11-12T19:49:06.763Z,56.25
2022-11-12T19:51:51.449Z,56.26
2022-11-12T19:54:36.603Z,56.50
2022-11-12T19:57:22.862Z,56.37
2022-11-12T20:00:08.939Z,56.65
2022-11-12T20:02:54.021Z,56.69
2022-11-12T20:05:42.629Z,56.70
2022-11-12T20:08:28.076Z,56.82
2022-11-12T20:11:14.388Z,56.70
2022-11-12T20:13:59.458Z,57.02
2022-11-12T20:17:04.862Z,57.01
2022-11-12T20:19:49.697Z,56.85
2022-11-12T20:22:34.816Z,57.06
2022-11-12T20:25:21.150Z,56.98
2022-11-12T20:28:06.630Z,57.32
2022-11-12T20:30:51.765Z,57.30
2022-11-12T20:33:42.064Z,57.22
2022-11-12T20:36:27.662Z,57.43
2022-11-12T20:39:12.723Z,57.50
2022-11-12T20:41:58.517Z,57.58
2022-11-12T20:44:43.633Z,57.68
2022-11-12T20:47:28.651Z,57.38
2022-11-12T20:50:13.759Z,57.54
2022-11-12T20:52:58.921Z,57.66
2022-11-12T20:55:45.700Z,57.62
2022-11-12T20:58:30.908Z,57.50
2022-11-12T21:01:18.836Z,57.67
2022-11-12T21:04:04.023Z,57.47
2022-11-12T21:06:50.166Z,57.70
2022-11-12T21:09:35.355Z,57.68
2022-11-12T21:12:20.440Z,57.67
2022-11-12T21:15:07.298Z,57.85
2022-11-12T21:17:52.522Z,57.84
2022-11-12T21:20:38.153Z,58.03
2022-11-12T21:23:23.673Z,57.56
2022-11-12T21:26:17.882Z,57.74
2022-11-12T21:29:04.567Z,57.72
2022-11-12T21:31:49.872Z,57.57
2022-11-12T21:34:36.568Z,57.64
2022-11-12T21:37:22.207Z,57.76
2022-11-12T21:40:08.004Z,57.75
2022-11-12T21:42:52.957Z,57.78
2022-11-12T21:45:44.719Z,57.84
2022-11-12T21:48:30.065Z,57.63
2022-11-12T21:51:19.604Z,57.69
2022-11-12T21:54:07.270Z,57.75
2022-11-12T21:56:52.564Z,57.57
2022-11-12T21:59:37.519Z,57.66
2022-11-12T22:02:22.625Z,57.35
2022-11-12T22:05:08.962Z,57.37
2022-11-12T22:07:54.132Z,57.41
2022-11-12T22:10:39.268Z,57.80
2022-11-12T22:13:27.847Z,57.86
2022-11-12T22:16:24.645Z,57.68
2022-11-12T22:19:11.198Z,57.67
2022-11-12T22:21:56.020Z,57.55
2022-11-12T22:24:42.558Z,57.33
2022-11-12T22:27:31.288Z,57.70
2022-11-12T22:30:16.563Z,57.46
2022-11-12T22:33:01.841Z,57.59
2022-11-12T22:35:48.587Z,57.77
2022-11-12T22:38:35.599Z,57.74
2022-11-12T22:41:23.701Z,57.89
2022-11-12T22:44:08.772Z,57.85
2022-11-12T22:46:54.541Z,58.04
2022-11-12T22:49:39.324Z,57.95
2022-11-12T22:52:24.198Z,57.90
2022-11-12T22:55:10.785Z,58.02
2022-11-12T22:57:55.653Z,58.19
2022-11-12T23:00:40.436Z,58.03
2022-11-12T23:03:25.428Z,57.85
2022-11-12T23:06:10.928Z,58.23
2022-11-12T23:08:57.244Z,58.00
2022-11-12T23:11:42.377Z,58.00
2022-11-12T23:14:30.505Z,58.06
2022-11-12T23:17:15.414Z,58.08
2022-11-12T23:20:00.480Z,57.88
2022-11-12T23:22:45.461Z,58.09
2022-11-12T23:25:34.113Z,57.99
2022-11-12T23:28:19.174Z,58.14
2022-11-12T23:31:06.561Z,58.13
2022-11-12T23:33:53.814Z,58.44
2022-11-12T23:36:39.175Z,58.64
2022-11-12T23:39:24.173Z,58.45
2022-11-12T23:42:08.932Z,58.51
2022-11-12T23:44:57.273Z,58.61
2022-11-12T23:47:42.552Z,58.68
2022-11-12T23:50:27.370Z,58.77
2022-11-12T23:53:12.660Z,58.67
2022-11-12T23:55:57.566Z,58.74
2022-11-12T23:58:43.039Z,58.73
